TimeWET,TemperatureF,Dew PointF,Humidity,Sea Level PressureIn,VisibilityMPH,Wind Direction,Wind SpeedMPH,Gust SpeedMPH,PrecipitationIn,Events,Conditions,WindDirDegrees,DateUTC
12:00 AM,57,53,81,29.98,6,Calm,Calm,,,,Mostly Cloudy,,2012-11-27 00:00:00
12:00 AM,57.2,53.6,88,29.98,6.2,Calm,Calm,-,N/A,,Mostly Cloudy,0,2012-11-27 00:00:00
12:30 AM,57.2,53.6,88,29.98,6.2,ENE,3.5,-,N/A,,Mostly Cloudy,60,2012-11-27 00:30:00
1:00 AM,57.2,53.6,88,29.98,6.2,ESE,3.5,-,N/A,,Mostly Cloudy,110,2012-11-27 01:00:00
1:30 AM,57.2,53.6,88,29.98,6.2,SSE,3.5,-,N/A,,Mostly Cloudy,150,2012-11-27 01:30:00
2:00 AM,57.2,53.6,88,29.98,6.2,Calm,Calm,-,N/A,,Mostly Cloudy,0,2012-11-27 02:00:00
2:30 AM,57.2,53.6,88,29.95,6.2,Calm,Calm,-,N/A,,Mostly Cloudy,0,2012-11-27 02:30:00
3:00 AM,58,54,82,29.95,6,Calm,Calm,,,,Mostly Cloudy,,2012-11-27 03:00:00
3:00 AM,57.2,53.6,88,29.95,6.2,Calm,Calm,-,N/A,,Mostly Cloudy,0,2012-11-27 03:00:00
3:30 AM,57.2,55.4,94,29.95,6.2,Calm,Calm,-,N/A,,Mostly Cloudy,0,2012-11-27 03:30:00
4:00 AM,59.0,55.4,88,29.95,6.2,NE,2.3,-,N/A,,Mostly Cloudy,50,2012-11-27 04:00:00
4:30 AM,59.0,55.4,88,29.95,6.2,Calm,Calm,-,N/A,,Unknown,0,2012-11-27 04:30:00
5:00 AM,59.0,55.4,88,29.98,6.2,NNE,3.5,-,N/A,,Unknown,30,2012-11-27 05:00:00
5:30 AM,57.2,55.4,94,29.98,6.2,NNE,4.6,-,N/A,,Mostly Cloudy,20,2012-11-27 05:30:00
6:00 AM,58,55,87,29.96,5,Calm,Calm,,,,Mostly Cloudy,,2012-11-27 06:00:00
6:00 AM,57.2,55.4,94,29.98,5.0,Calm,Calm,-,N/A,,Mostly Cloudy,0,2012-11-27 06:00:00
6:30 AM,57.2,55.4,94,29.98,6.2,Variable,2.3,-,N/A,Rain,Rain,0,2012-11-27 06:30:00
7:00 AM,57.2,55.4,94,29.98,6.2,NNE,3.5,-,N/A,,Mostly Cloudy,20,2012-11-27 07:00:00
7:30 AM,57.2,55.4,94,30.01,5.0,North,4.6,-,N/A,,Scattered Clouds,360,2012-11-27 07:30:00
8:00 AM,59.0,53.6,82,30.01,6.2,NNE,6.9,-,N/A,,Scattered Clouds,20,2012-11-27 08:00:00
8:30 AM,59.0,53.6,82,30.04,6.2,NNE,4.6,-,N/A,,Scattered Clouds,20,2012-11-27 08:30:00
9:00 AM,58,54,80,30.02,6,NNE,4.6,,,,Overcast,30,2012-11-27 09:00:00
9:00 AM,59.0,53.6,82,30.04,6.2,NNE,4.6,-,N/A,,Scattered Clouds,30,2012-11-27 09:00:00
9:30 AM,59.0,53.6,82,30.04,6.2,NE,5.8,-,N/A,,Scattered Clouds,50,2012-11-27 09:30:00
10:00 AM,59.0,55.4,88,30.04,6.2,ENE,4.6,-,N/A,,Overcast,60,2012-11-27 10:00:00
10:30 AM,59.0,55.4,88,30.06,4.3,NNE,4.6,-,N/A,,Overcast,30,2012-11-27 10:30:00
11:00 AM,57.2,55.4,94,30.06,3.7,NE,3.5,-,N/A,Rain,Light Rain,50,2012-11-27 11:00:00
11:30 AM,57.2,55.4,94,30.06,3.7,Calm,Calm,-,N/A,Rain,Light Rain,0,2012-11-27 11:30:00
11:46 AM,58,53,80,30.04,5,NNE,4.6,,,Rain,Light Rain,30,2012-11-27 11:46:00
12:00 PM,59.0,53.6,82,30.04,5.0,NNE,4.6,-,N/A,,Overcast,30,2012-11-27 12:00:00
12:30 PM,59.0,53.6,82,30.04,5.0,NE,3.5,-,N/A,,Overcast,40,2012-11-27 12:30:00
1:00 PM,59.0,51.8,77,30.04,5.0,Variable,2.3,-,N/A,,Overcast,0,2012-11-27 13:00:00
1:30 PM,59.0,53.6,82,30.01,3.7,ESE,2.3,-,N/A,Rain,Rain,120,2012-11-27 13:30:00
2:00 PM,59.0,53.6,82,30.01,3.7,Calm,Calm,-,N/A,,Overcast,0,2012-11-27 14:00:00
2:30 PM,59.0,55.4,88,30.01,3.7,SW,4.6,-,N/A,,Overcast,220,2012-11-27 14:30:00
2:45 PM,58,53,80,30.00,4,North,1.2,,,Rain,Light Rain,350,2012-11-27 14:45:00
3:00 PM,57.2,53.6,88,30.01,3.7,Variable,1.2,-,N/A,,Overcast,0,2012-11-27 15:00:00
3:30 PM,59.0,53.6,82,30.01,3.7,Calm,Calm,-,N/A,Rain,Rain,0,2012-11-27 15:30:00
4:00 PM,59.0,53.6,82,30.01,3.7,ENE,4.6,-,N/A,,Overcast,60,2012-11-27 16:00:00
4:30 PM,57.2,51.8,82,30.01,6.2,NE,5.8,-,N/A,,Overcast,50,2012-11-27 16:30:00
5:00 PM,57.2,51.8,82,30.01,6.2,ENE,4.6,-,N/A,,Overcast,60,2012-11-27 17:00:00
5:30 PM,57.2,50.0,77,30.01,6.2,NE,4.6,-,N/A,,Overcast,50,2012-11-27 17:30:00
6:00 PM,57,50,70,30.02,6,NE,3.5,,,,Unknown,50,2012-11-27 18:00:00
6:00 PM,57.2,50.0,77,30.01,6.2,NE,3.5,-,N/A,,Overcast,50,2012-11-27 18:00:00
6:30 PM,57.2,50.0,77,30.04,6.2,ENE,2.3,-,N/A,,Mostly Cloudy,60,2012-11-27 18:30:00
7:00 PM,57.2,48.2,72,30.04,6.2,NE,5.8,-,N/A,,Mostly Cloudy,40,2012-11-27 19:00:00
7:30 PM,57.2,46.4,67,30.04,6.2,NNE,9.2,-,N/A,,Mostly Cloudy,30,2012-11-27 19:30:00
8:00 PM,57.2,46.4,67,30.06,6.2,NNE,8.1,-,N/A,,Mostly Cloudy,30,2012-11-27 20:00:00
8:30 PM,55.4,46.4,72,30.06,6.2,NNE,8.1,-,N/A,,Mostly Cloudy,30,2012-11-27 20:30:00
9:00 PM,55,46,64,30.06,6,NE,8.1,,,,Mostly Cloudy,40,2012-11-27 21:00:00
9:00 PM,55.4,46.4,72,30.06,6.2,NE,6.9,-,N/A,,Mostly Cloudy,40,2012-11-27 21:00:00
9:30 PM,53.6,46.4,77,30.06,6.2,NE,8.1,-,N/A,,Mostly Cloudy,40,2012-11-27 21:30:00
10:00 PM,53.6,46.4,77,30.06,6.2,NE,8.1,-,N/A,,Mostly Cloudy,40,2012-11-27 22:00:00
10:30 PM,53.6,46.4,77,30.06,6.2,NE,5.8,-,N/A,,Mostly Cloudy,50,2012-11-27 22:30:00
11:00 PM,53.6,46.4,77,30.06,6.2,ENE,4.6,-,N/A,,Mostly Cloudy,60,2012-11-27 23:00:00
11:30 PM,53.6,44.6,72,30.06,6.2,NE,5.8,-,N/A,,Mostly Cloudy,40,2012-11-27 23:30:00